»·PEaware :: DAL467 LLBG-KJFK

DAL467 :: LLBG-KJFK

FLIGHT INFORMATION

Flight Status: Arrived
Operator:
Delta Air Lines
More flights by this operator :: More flights under this callsign
Pilot: Richard S. (14671)
Aircraft: AIRBUS A330-200
(A332)
More flights by this aircraft type
Origin: LLBG Ben Gurion
Israel
Destination: KJFK Kennedy Intl
United States
More flights between these airports :: More routes between these airports
Route: PURL2C PURLA SUVAS UL53 MADEX UM601 EKTOS/N0469F360 UM601 RUTOM/N0414F180 M601 CRN M736 SOR M603 PNZ M729 ELB/N0466F360 DOBIM BEBIX NTS QPR/M083F360 ELSOX DINIM 5120N 5130N 5040N 4850N/N0476F360 NICSO/N0476F400 N234A TUSKY PLYMM PARCH1
File this flight plan on PilotEdge
Remarks:
Altitude:
(Current/Filed)
34,000ft
Speed:
(Current/Filed)
484kts
Departed: 24-Dec-17 11:54 PM
Arrived: 25-Dec-17 12:47 PM
Distance/Time
Traveled:
4920nm/12:53
Distance/Time
To Go:
Arrived

Flight Plot

Page will automatically refresh every two minutes.

Flight plan parsing failed; only flown route is shown


Map Options




Map Legend


Flown Route
Filed Route
Departure Airport
Arrival Airport
Navaid (VOR, NDB)
Fix

Horizontal Profiles

Position Reports

Time Latitude Longitude Heading Altitude Ground
Speed
24-Dec-17 23:54 32.018563 34.898344 259 12ft 0kts
24-Dec-17 23:55 32.018563 34.898344 259 12ft 0kts
24-Dec-17 23:56 32.018563 34.898344 259 12ft 0kts
24-Dec-17 23:57 32.018563 34.898344 259 12ft 0kts
24-Dec-17 23:58 32.018563 34.898344 259 12ft 0kts
24-Dec-17 23:59 32.018563 34.898344 259 12ft 0kts
25-Dec-17 00:00 32.016770 34.886811 260 12ft 109kts
25-Dec-17 00:01 32.010169 34.838288 272 1348ft 166kts
25-Dec-17 00:02 32.016531 34.766340 275 2664ft 248kts
25-Dec-17 00:03 32.021968 34.684466 274 4866ft 259kts
25-Dec-17 00:04 32.026686 34.605835 274 6879ft 267kts
25-Dec-17 00:05 32.031802 34.519905 277 9201ft 265kts
25-Dec-17 00:06 32.037199 34.430761 277 10739ft 293kts
25-Dec-17 00:07 32.043322 34.327251 276 11647ft 343kts
25-Dec-17 00:08 32.058448 34.215595 299 13616ft 353kts
25-Dec-17 00:09 32.107331 34.115520 300 15676ft 361kts
25-Dec-17 00:10 32.158237 34.014804 299 17561ft 368kts
25-Dec-17 00:11 32.207684 33.911485 296 19394ft 373kts
25-Dec-17 00:12 32.256901 33.806750 295 21065ft 378kts
25-Dec-17 00:13 32.306595 33.700679 294 22546ft 384kts
25-Dec-17 00:14 32.357319 33.592084 293 23865ft 391kts
25-Dec-17 00:15 32.408261 33.482683 292 25106ft 396kts
25-Dec-17 00:16 32.460279 33.370658 292 26255ft 401kts
25-Dec-17 00:17 32.512535 33.257658 292 27378ft 405kts
25-Dec-17 00:18 32.565441 33.143000 291 28408ft 409kts
25-Dec-17 00:19 32.618889 33.026816 291 29351ft 413kts
25-Dec-17 00:20 32.671480 32.912148 291 30604ft 407kts
25-Dec-17 00:21 32.724152 32.796918 291 31606ft 404kts
25-Dec-17 00:22 32.776029 32.683068 291 32488ft 401kts
25-Dec-17 00:23 32.827376 32.570022 291 33248ft 399kts
25-Dec-17 00:24 32.881323 32.459491 296 33913ft 404kts
25-Dec-17 00:25 32.943365 32.353022 296 34246ft 404kts
25-Dec-17 00:26 33.005561 32.246823 296 34238ft 402kts
25-Dec-17 00:27 33.067852 32.140301 296 34238ft 401kts
25-Dec-17 00:28 33.131489 32.034444 296 34239ft 402kts
25-Dec-17 00:29 33.195334 31.928343 296 34239ft 402kts
25-Dec-17 00:30 33.259015 31.822172 296 34238ft 402kts
25-Dec-17 00:31 33.322692 31.715698 296 34236ft 402kts
25-Dec-17 00:32 33.386218 31.609172 296 34237ft 402kts
25-Dec-17 00:33 33.449703 31.502404 296 34236ft 402kts
25-Dec-17 00:34 33.512669 31.396199 296 34236ft 402kts
25-Dec-17 00:35 33.574916 31.290813 296 34243ft 401kts
25-Dec-17 00:36 33.637773 31.184146 296 34240ft 402kts
25-Dec-17 00:37 33.690158 31.095042 296 34240ft 401kts
25-Dec-17 00:38 33.763302 30.970016 304 34240ft 407kts
25-Dec-17 00:39 33.827828 30.859826 304 34237ft 414kts
25-Dec-17 00:40 33.881157 30.768313 304 34238ft 414kts
25-Dec-17 00:41 33.945774 30.657111 304 34237ft 414kts
25-Dec-17 00:42 34.021084 30.527063 306 34237ft 421kts
25-Dec-17 00:43 34.075242 30.433275 306 34231ft 423kts
25-Dec-17 00:44 34.151672 30.300610 305 34238ft 423kts
25-Dec-17 00:45 34.206388 30.205229 305 34243ft 422kts
25-Dec-17 00:46 34.271613 30.091213 305 34239ft 423kts
25-Dec-17 00:47 34.335510 29.977229 303 34238ft 424kts
25-Dec-17 00:48 34.396403 29.859540 303 34238ft 424kts
25-Dec-17 00:49 34.457601 29.740972 303 34238ft 424kts
25-Dec-17 00:50 34.518714 29.622173 303 34238ft 425kts
25-Dec-17 00:51 34.579714 29.503193 303 34321ft 426kts
25-Dec-17 00:52 34.640604 29.384024 303 34312ft 425kts
25-Dec-17 00:53 34.699070 29.269085 303 34290ft 425kts
25-Dec-17 00:54 34.759632 29.149749 303 34309ft 426kts
25-Dec-17 00:55 34.820544 29.029347 302 34292ft 433kts
25-Dec-17 00:56 34.881706 28.908012 302 34313ft 431kts
25-Dec-17 00:57 34.942719 28.786532 303 34320ft 434kts
25-Dec-17 00:58 35.005242 28.661679 303 34317ft 449kts
25-Dec-17 00:59 35.067864 28.535921 302 34310ft 446kts
25-Dec-17 01:00 35.128998 28.412898 303 34318ft 446kts
25-Dec-17 01:01 35.190920 28.287445 301 34325ft 452kts
25-Dec-17 01:02 35.253591 28.159998 301 34320ft 450kts
25-Dec-17 01:03 35.315903 28.032852 301 34319ft 450kts
25-Dec-17 01:04 35.378240 27.905185 301 34319ft 450kts
25-Dec-17 01:05 35.440666 27.776863 301 34320ft 450kts
25-Dec-17 01:06 35.502828 27.648651 300 34320ft 456kts
25-Dec-17 01:07 35.564943 27.519961 300 34322ft 451kts
25-Dec-17 01:08 35.627151 27.390637 300 34319ft 450kts
25-Dec-17 01:09 35.688463 27.262576 299 34319ft 451kts
25-Dec-17 01:10 35.750434 27.132755 299 34320ft 451kts
25-Dec-17 01:11 35.812556 27.002142 299 34320ft 462kts
25-Dec-17 01:12 35.867696 26.866239 294 34322ft 458kts
25-Dec-17 01:13 35.925336 26.732822 303 34319ft 460kts
25-Dec-17 01:14 35.995480 26.605475 303 34321ft 460kts
25-Dec-17 01:15 36.065736 26.478469 303 34290ft 460kts
25-Dec-17 01:16 36.134826 26.353376 303 34362ft 459kts
25-Dec-17 01:17 36.203491 26.228288 302 34374ft 460kts
25-Dec-17 01:18 36.272794 26.101660 302 34375ft 458kts
25-Dec-17 01:19 36.342174 25.974424 302 34378ft 460kts
25-Dec-17 01:20 36.411723 25.846400 302 34373ft 460kts
25-Dec-17 01:21 36.480956 25.718478 302 34372ft 460kts
25-Dec-17 01:22 36.550484 25.589526 302 34374ft 460kts
25-Dec-17 01:23 36.619964 25.460171 302 34374ft 460kts
25-Dec-17 01:24 36.661779 25.320143 279 34380ft 458kts
25-Dec-17 01:25 36.681400 25.168650 277 34375ft 453kts
25-Dec-17 01:26 36.697330 25.016043 277 34372ft 455kts
25-Dec-17 01:27 36.713009 24.863265 277 34373ft 455kts
25-Dec-17 01:28 36.728462 24.710430 277 34374ft 455kts
25-Dec-17 01:29 36.743776 24.556936 277 34374ft 455kts
25-Dec-17 01:30 36.781669 24.410639 290 34371ft 456kts
25-Dec-17 01:31 36.826120 24.266948 290 34372ft 456kts
25-Dec-17 01:32 36.870513 24.123381 290 34374ft 456kts
25-Dec-17 01:33 36.915201 23.978172 290 34374ft 454kts
25-Dec-17 01:34 36.959853 23.832519 290 34374ft 458kts
25-Dec-17 01:35 37.004129 23.687336 290 34397ft 457kts
25-Dec-17 01:36 37.048194 23.542094 290 34402ft 456kts
25-Dec-17 01:37 37.092085 23.396674 290 34401ft 456kts
25-Dec-17 01:38 37.133886 23.257738 289 34401ft 456kts
25-Dec-17 01:39 37.177523 23.111506 289 34373ft 456kts
25-Dec-17 01:40 37.220918 22.965279 289 34374ft 457kts
25-Dec-17 01:41 37.264215 22.818602 289 34374ft 456kts
25-Dec-17 01:42 37.306924 22.673147 289 34399ft 456kts
25-Dec-17 01:43 37.349609 22.527000 289 34399ft 456kts
25-Dec-17 01:44 37.392321 22.379972 289 34400ft 456kts
25-Dec-17 01:45 37.443276 22.241018 295 34398ft 457kts
25-Dec-17 01:46 37.498843 22.100398 295 34400ft 456kts
25-Dec-17 01:47 37.554444 21.959251 295 34400ft 456kts
25-Dec-17 01:48 37.609630 21.818533 295 34400ft 456kts
25-Dec-17 01:49 37.664492 21.678004 295 34401ft 456kts
25-Dec-17 01:50 37.718779 21.538324 295 34401ft 456kts
25-Dec-17 01:51 37.773352 21.397266 295 34401ft 456kts
25-Dec-17 01:52 37.826438 21.259316 295 34401ft 455kts
25-Dec-17 01:53 37.880537 21.118198 295 34401ft 455kts
25-Dec-17 01:54 37.934188 20.977625 295 34401ft 455kts
25-Dec-17 01:55 37.987657 20.836886 295 34400ft 455kts
25-Dec-17 01:56 38.040747 20.696498 295 34401ft 455kts
25-Dec-17 01:57 38.093850 20.555431 295 34401ft 455kts
25-Dec-17 01:58 38.137877 20.414612 288 34399ft 454kts
25-Dec-17 01:59 38.179150 20.265231 287 34401ft 459kts
25-Dec-17 02:00 38.220008 20.116205 287 34431ft 459kts
25-Dec-17 02:01 38.260763 19.966718 287 34424ft 457kts
25-Dec-17 02:02 38.301482 19.816495 287 34426ft 458kts
25-Dec-17 02:03 38.341470 19.667995 287 34428ft 458kts
25-Dec-17 02:04 38.381531 19.518255 287 34428ft 458kts
25-Dec-17 02:05 38.421263 19.368867 287 34394ft 459kts
25-Dec-17 02:06 38.460793 19.219234 286 34380ft 458kts
25-Dec-17 02:07 38.500395 19.068561 286 34372ft 458kts
25-Dec-17 02:08 38.539645 18.920051 286 34372ft 458kts
25-Dec-17 02:09 38.579296 18.770039 287 34376ft 465kts
25-Dec-17 02:10 38.618521 18.616212 287 34376ft 464kts
25-Dec-17 02:11 38.657337 18.462998 287 34373ft 466kts
25-Dec-17 02:12 38.695622 18.310882 286 34373ft 466kts
25-Dec-17 02:13 38.734031 18.157324 286 34374ft 466kts
25-Dec-17 02:14 38.772530 18.002552 286 34374ft 466kts
25-Dec-17 02:15 38.810894 17.847329 286 34374ft 466kts
25-Dec-17 02:16 38.848739 17.693190 285 34373ft 467kts
25-Dec-17 02:17 38.886597 17.537899 285 34373ft 466kts
25-Dec-17 02:18 38.924043 17.383299 285 34379ft 467kts
25-Dec-17 02:19 38.960566 17.231432 284 34455ft 468kts
25-Dec-17 02:20 39.001677 17.078984 301 34414ft 470kts
25-Dec-17 02:21 39.078350 16.946373 305 34397ft 473kts
25-Dec-17 02:22 39.155275 16.817826 305 34402ft 474kts
25-Dec-17 02:23 39.232891 16.687667 305 34451ft 474kts
25-Dec-17 02:24 39.310927 16.556322 305 34414ft 475kts
25-Dec-17 02:25 39.389097 16.424204 305 34300ft 474kts
25-Dec-17 02:26 39.465952 16.293671 305 34393ft 473kts
25-Dec-17 02:27 39.543079 16.162205 305 34450ft 473kts
25-Dec-17 02:28 39.620102 16.030399 305 34452ft 473kts
25-Dec-17 02:29 39.697752 15.896994 305 34452ft 473kts
25-Dec-17 02:30 39.775544 15.762768 305 34455ft 473kts
25-Dec-17 02:31 39.852557 15.629333 305 34376ft 473kts
25-Dec-17 02:32 39.928712 15.496761 305 34372ft 473kts
25-Dec-17 02:33 40.004412 15.364404 306 34374ft 473kts
25-Dec-17 02:34 40.080746 15.230270 305 34374ft 473kts
25-Dec-17 02:35 40.155012 15.099542 305 34373ft 473kts
25-Dec-17 02:36 40.231303 14.964518 304 34406ft 473kts
25-Dec-17 02:37 40.308405 14.827369 304 34480ft 480kts
25-Dec-17 02:38 40.384953 14.690644 304 34481ft 479kts
25-Dec-17 02:39 40.461414 14.553475 304 34482ft 478kts
25-Dec-17 02:40 40.534428 14.421922 304 34481ft 478kts
25-Dec-17 02:41 40.595316 14.277742 287 34477ft 475kts
25-Dec-17 02:42 40.635823 14.117100 286 34454ft 475kts
25-Dec-17 02:43 40.674828 13.956883 286 34457ft 475kts
25-Dec-17 02:44 40.713521 13.796713 286 34455ft 475kts
25-Dec-17 02:45 40.751933 13.636612 286 34455ft 475kts
25-Dec-17 02:46 40.790049 13.476640 286 34454ft 476kts
25-Dec-17 02:47 40.828185 13.315426 285 34455ft 476kts
25-Dec-17 02:48 40.866265 13.153258 285 34455ft 476kts
25-Dec-17 02:49 40.904294 12.991854 289 34451ft 478kts
25-Dec-17 02:50 40.984983 12.859300 312 34456ft 483kts
25-Dec-17 02:51 41.075489 12.735663 312 34432ft 484kts
25-Dec-17 02:52 41.163553 12.615684 313 34427ft 484kts
25-Dec-17 02:53 41.239297 12.512026 313 34428ft 484kts
25-Dec-17 02:54 41.344854 12.367213 313 34427ft 485kts
25-Dec-17 02:55 41.435561 12.242065 312 34427ft 484kts
25-Dec-17 02:56 41.525584 12.117527 312 34428ft 485kts
25-Dec-17 02:57 41.601292 12.012500 312 34428ft 485kts
25-Dec-17 02:58 41.691567 11.886775 312 34458ft 485kts
25-Dec-17 02:59 41.795641 11.740055 312 34455ft 485kts
25-Dec-17 03:00 41.870877 11.634054 312 34454ft 485kts
25-Dec-17 03:01 41.961367 11.506149 312 34455ft 486kts
25-Dec-17 03:02 42.050560 11.379518 312 34441ft 486kts
25-Dec-17 03:03 42.136207 11.257390 311 34429ft 485kts
25-Dec-17 03:04 42.226104 11.128678 311 34427ft 485kts
25-Dec-17 03:05 42.314516 11.001452 311 34427ft 482kts
25-Dec-17 03:06 42.402349 10.874619 309 34428ft 472kts
25-Dec-17 03:07 42.490019 10.747525 309 34427ft 477kts
25-Dec-17 03:08 42.577378 10.620336 309 34428ft 477kts
25-Dec-17 03:09 42.664292 10.493241 309 34372ft 478kts
25-Dec-17 03:10 42.742355 10.357969 293 34373ft 471kts
25-Dec-17 03:11 42.797351 10.204162 291 34381ft 479kts
25-Dec-17 03:12 42.852410 10.045341 291 34374ft 478kts
25-Dec-17 03:13 42.907427 9.885532 291 34402ft 482kts
25-Dec-17 03:14 42.963682 9.726610 296 34408ft 483kts
25-Dec-17 03:15 43.027675 9.571639 296 34399ft 482kts
25-Dec-17 03:16 43.091089 9.417502 296 34395ft 485kts
25-Dec-17 03:17 43.153186 9.266019 295 34401ft 484kts
25-Dec-17 03:18 43.216630 9.110207 295 34375ft 485kts
25-Dec-17 03:19 43.279656 8.954580 295 34374ft 484kts
25-Dec-17 03:20 43.342943 8.797449 295 34374ft 485kts
25-Dec-17 03:21 43.406041 8.639920 295 34374ft 485kts
25-Dec-17 03:22 43.468784 8.482418 295 34374ft 486kts
25-Dec-17 03:23 43.530144 8.327525 295 34374ft 486kts
25-Dec-17 03:24 43.592586 8.168934 295 34373ft 486kts
25-Dec-17 03:25 43.655134 8.009288 295 34374ft 487kts
25-Dec-17 03:26 43.717146 7.850122 295 34374ft 487kts
25-Dec-17 03:27 43.779493 7.689180 295 34382ft 488kts
25-Dec-17 03:28 43.841907 7.527151 295 34401ft 491kts
25-Dec-17 03:29 43.903378 7.366629 295 34386ft 489kts
25-Dec-17 03:30 43.963506 7.208625 294 34377ft 488kts
25-Dec-17 03:31 44.025110 7.045918 295 34354ft 489kts
25-Dec-17 03:32 44.086580 6.882618 295 34347ft 490kts
25-Dec-17 03:33 44.144052 6.729412 295 34367ft 489kts
25-Dec-17 03:34 44.204781 6.566275 294 34372ft 489kts
25-Dec-17 03:35 44.264951 6.403653 294 34346ft 489kts
25-Dec-17 03:36 44.321252 6.250491 294 34346ft 489kts
25-Dec-17 03:37 44.377217 6.097500 294 34373ft 489kts
25-Dec-17 03:38 44.433837 5.941866 293 34321ft 489kts
25-Dec-17 03:39 44.491298 5.782999 293 34272ft 489kts
25-Dec-17 03:40 44.548920 5.622763 293 34364ft 488kts
25-Dec-17 03:41 44.606278 5.462331 293 34369ft 488kts
25-Dec-17 03:42 44.661134 5.307946 292 34276ft 489kts
25-Dec-17 03:43 44.715246 5.154762 292 34287ft 488kts
25-Dec-17 03:44 44.769053 5.001665 292 34292ft 480kts
25-Dec-17 03:45 44.824260 4.843663 293 34292ft 487kts
25-Dec-17 03:46 44.879789 4.683793 293 34267ft 487kts
25-Dec-17 03:47 44.935814 4.521537 293 34227ft 486kts
25-Dec-17 03:48 44.992212 4.357193 293 34213ft 486kts
25-Dec-17 03:49 45.044914 4.202600 292 34213ft 486kts
25-Dec-17 03:50 45.100852 4.037635 292 34212ft 486kts
25-Dec-17 03:51 45.155421 3.876115 292 34211ft 486kts
25-Dec-17 03:52 45.211463 3.708814 292 34211ft 486kts
25-Dec-17 03:53 45.266654 3.542992 292 34211ft 486kts
25-Dec-17 03:54 45.322938 3.372900 291 34210ft 486kts
25-Dec-17 03:55 45.376804 3.208779 290 34212ft 487kts
25-Dec-17 03:56 45.431936 3.039921 290 34211ft 488kts
25-Dec-17 03:57 45.486981 2.870241 290 34212ft 488kts
25-Dec-17 03:58 45.541837 2.700039 289 34212ft 488kts
25-Dec-17 03:59 45.596538 2.529202 289 34212ft 489kts
25-Dec-17 04:00 45.650858 2.358419 289 34187ft 494kts
25-Dec-17 04:01 45.703114 2.192950 289 34187ft 487kts
25-Dec-17 04:02 45.757005 2.021290 288 34186ft 489kts
25-Dec-17 04:03 45.810836 1.848654 288 34185ft 490kts
25-Dec-17 04:04 45.864315 1.675990 288 34185ft 490kts
25-Dec-17 04:05 45.917336 1.503628 288 34186ft 490kts
25-Dec-17 04:06 45.974266 1.340709 296 34180ft 497kts
25-Dec-17 04:07 46.042810 1.178099 295 34188ft 499kts
25-Dec-17 04:08 46.110124 1.017864 295 34182ft 497kts
25-Dec-17 04:09 46.179777 0.851336 295 34183ft 498kts
25-Dec-17 04:10 46.248752 0.685150 295 34211ft 497kts
25-Dec-17 04:11 46.317882 0.517570 295 34212ft 497kts
25-Dec-17 04:12 46.385973 0.351519 295 34211ft 496kts
25-Dec-17 04:13 46.451542 0.190544 294 34212ft 496kts
25-Dec-17 04:14 46.518855 0.024423 294 34211ft 494kts
25-Dec-17 04:15 46.585986 -0.142261 294 34213ft 495kts
25-Dec-17 04:16 46.652921 -0.309481 294 34212ft 494kts
25-Dec-17 04:17 46.719188 -0.476024 294 34211ft 493kts
25-Dec-17 04:18 46.785005 -0.642481 294 34186ft 494kts
25-Dec-17 04:19 46.848360 -0.803748 293 34135ft 492kts
25-Dec-17 04:20 46.912955 -0.969012 293 34132ft 479kts
25-Dec-17 04:21 46.976722 -1.133293 293 34131ft 485kts
25-Dec-17 04:22 47.039834 -1.296803 293 34132ft 484kts
25-Dec-17 04:23 47.101721 -1.458101 293 34132ft 485kts
25-Dec-17 04:24 47.158717 -1.607233 292 34128ft 484kts
25-Dec-17 04:25 47.212830 -1.772899 288 34130ft 480kts
25-Dec-17 04:26 47.268007 -1.943938 288 34106ft 480kts
25-Dec-17 04:27 47.322947 -2.115399 288 34103ft 481kts
25-Dec-17 04:28 47.377795 -2.287729 288 34103ft 482kts
25-Dec-17 04:29 47.432068 -2.459425 288 34063ft 483kts
25-Dec-17 04:30 47.486544 -2.632923 288 34022ft 483kts
25-Dec-17 04:31 47.540481 -2.805998 287 34024ft 482kts
25-Dec-17 04:32 47.594434 -2.980218 288 34023ft 479kts
25-Dec-17 04:33 47.648070 -3.154653 288 34023ft 481kts
25-Dec-17 04:34 47.701126 -3.328395 288 33997ft 480kts
25-Dec-17 04:35 47.753894 -3.502399 288 33994ft 479kts
25-Dec-17 04:36 47.806226 -3.676202 287 33997ft 479kts
25-Dec-17 04:37 47.857991 -3.849415 287 33959ft 480kts
25-Dec-17 04:38 47.909655 -4.023412 287 33945ft 479kts
25-Dec-17 04:39 47.961676 -4.196514 292 33943ft 482kts
25-Dec-17 04:40 48.023946 -4.363649 293 33918ft 483kts
25-Dec-17 04:41 48.086519 -4.532672 293 33914ft 483kts
25-Dec-17 04:42 48.148381 -4.700467 292 33915ft 483kts
25-Dec-17 04:43 48.209934 -4.868842 292 33915ft 482kts
25-Dec-17 04:44 48.271857 -5.039284 292 33913ft 481kts
25-Dec-17 04:45 48.333572 -5.210267 292 33913ft 482kts
25-Dec-17 04:46 48.394783 -5.380969 292 33913ft 482kts
25-Dec-17 04:47 48.455578 -5.551621 292 33915ft 481kts
25-Dec-17 04:48 48.516220 -5.723035 291 33915ft 480kts
25-Dec-17 04:49 48.576484 -5.894475 291 33914ft 480kts
25-Dec-17 04:50 48.636789 -6.067135 291 33914ft 480kts
25-Dec-17 04:51 48.696723 -6.239884 291 33915ft 480kts
25-Dec-17 04:52 48.756543 -6.413464 291 33915ft 480kts
25-Dec-17 04:53 48.815666 -6.586191 291 33862ft 481kts
25-Dec-17 04:54 48.874598 -6.759483 289 33755ft 474kts
25-Dec-17 04:55 48.931913 -6.929353 289 33756ft 472kts
25-Dec-17 04:56 48.989447 -7.100814 289 33753ft 470kts
25-Dec-17 04:57 49.046426 -7.271795 289 33753ft 470kts
25-Dec-17 04:58 49.102261 -7.440476 289 33753ft 470kts
25-Dec-17 04:59 49.158969 -7.612482 289 33751ft 471kts
25-Dec-17 05:00 49.215676 -7.786228 288 33751ft 469kts
25-Dec-17 05:01 49.271942 -7.959729 288 33751ft 470kts
25-Dec-17 05:02 49.328159 -8.134278 288 33751ft 470kts
25-Dec-17 05:03 49.383379 -8.306800 288 33746ft 444kts
25-Dec-17 05:04 49.435100 -8.469757 288 33752ft 444kts
25-Dec-17 05:05 49.486648 -8.633019 288 33752ft 440kts
25-Dec-17 05:06 49.537974 -8.796717 287 33749ft 435kts
25-Dec-17 05:07 49.589297 -8.961609 287 33892ft 444kts
25-Dec-17 05:08 49.640312 -9.126466 287 33885ft 441kts
25-Dec-17 05:09 49.691020 -9.291424 287 33886ft 440kts
25-Dec-17 05:10 49.741816 -9.457813 287 33888ft 441kts
25-Dec-17 05:11 49.783594 -9.595515 287 33887ft 441kts
25-Dec-17 05:12 49.842101 -9.789756 287 33889ft 439kts
25-Dec-17 05:13 49.891891 -9.956217 287 33888ft 440kts
25-Dec-17 05:14 49.933143 -10.095002 287 33889ft 440kts
25-Dec-17 05:15 49.982754 -10.262963 287 33888ft 440kts
25-Dec-17 05:16 50.031748 -10.429995 287 33888ft 440kts
25-Dec-17 05:17 50.081252 -10.599882 287 33889ft 436kts
25-Dec-17 05:18 50.127648 -10.759984 286 33885ft 440kts
25-Dec-17 05:19 50.176055 -10.928380 286 33885ft 439kts
25-Dec-17 05:20 50.224163 -11.096999 286 33886ft 439kts
25-Dec-17 05:21 50.272091 -11.266201 286 33886ft 439kts
25-Dec-17 05:22 50.319927 -11.436294 286 33887ft 439kts
25-Dec-17 05:23 50.367246 -11.605767 286 33886ft 439kts
25-Dec-17 05:24 50.414270 -11.775488 285 33887ft 438kts
25-Dec-17 05:25 50.460910 -11.944968 285 33887ft 437kts
25-Dec-17 05:26 50.507383 -12.115077 285 33887ft 438kts
25-Dec-17 05:27 50.553661 -12.285703 285 33887ft 438kts
25-Dec-17 05:28 50.599612 -12.456376 285 33887ft 438kts
25-Dec-17 05:29 50.645329 -12.627438 285 33886ft 436kts
25-Dec-17 05:30 50.690641 -12.798350 285 33889ft 436kts
25-Dec-17 05:31 50.735614 -12.969171 285 33888ft 436kts
25-Dec-17 05:32 50.780305 -13.140180 285 33887ft 435kts
25-Dec-17 05:33 50.824895 -13.312100 285 33888ft 435kts
25-Dec-17 05:34 50.869199 -13.484228 285 33887ft 435kts
25-Dec-17 05:35 50.913225 -13.656579 284 33887ft 435kts
25-Dec-17 05:36 50.956995 -13.829333 284 33888ft 434kts
25-Dec-17 05:37 50.995587 -14.002047 270 33899ft 420kts
25-Dec-17 05:38 51.000284 -14.180961 266 33856ft 418kts
25-Dec-17 05:39 51.000891 -14.358545 265 33646ft 415kts
25-Dec-17 05:40 51.000980 -14.537112 265 33642ft 417kts
25-Dec-17 05:41 51.000790 -14.716088 265 33644ft 416kts
25-Dec-17 05:42 51.000329 -14.894592 265 33646ft 415kts
25-Dec-17 05:43 51.001493 -15.071979 267 33645ft 417kts
25-Dec-17 05:44 51.004992 -15.249787 267 33644ft 416kts
25-Dec-17 05:45 51.008297 -15.429063 267 33645ft 417kts
25-Dec-17 05:46 51.011309 -15.607230 267 33644ft 416kts
25-Dec-17 05:47 51.014064 -15.785728 267 33645ft 416kts
25-Dec-17 05:48 51.016533 -15.963811 267 33644ft 416kts
25-Dec-17 05:49 51.018731 -16.142101 267 33645ft 416kts
25-Dec-17 05:50 51.020663 -16.320450 267 33645ft 416kts
25-Dec-17 05:51 51.022320 -16.498782 267 33644ft 415kts
25-Dec-17 05:52 51.023703 -16.676565 266 33647ft 416kts
25-Dec-17 05:53 51.024830 -16.855414 267 33645ft 415kts
25-Dec-17 05:54 51.025675 -17.033808 267 33645ft 416kts
25-Dec-17 05:55 51.026247 -17.212095 267 33644ft 415kts
25-Dec-17 05:56 51.026547 -17.389292 267 33644ft 416kts
25-Dec-17 05:57 51.026579 -17.566296 267 33644ft 415kts
25-Dec-17 05:58 51.026350 -17.743740 266 33646ft 415kts
25-Dec-17 05:59 51.025847 -17.921087 266 33645ft 415kts
25-Dec-17 06:00 51.025073 -18.098571 266 33644ft 415kts
25-Dec-17 06:01 51.024026 -18.276793 266 33644ft 415kts
25-Dec-17 06:02 51.022713 -18.454231 266 33643ft 415kts
25-Dec-17 06:03 51.021130 -18.631938 267 33643ft 415kts
25-Dec-17 06:04 51.019321 -18.806448 266 33619ft 415kts
25-Dec-17 06:05 51.017201 -18.984387 266 33619ft 415kts
25-Dec-17 06:06 51.014816 -19.161878 266 33617ft 415kts
25-Dec-17 06:07 51.012150 -19.339957 266 33617ft 415kts
25-Dec-17 06:08 51.009214 -19.518262 266 33616ft 415kts
25-Dec-17 06:09 51.006009 -19.696351 266 33619ft 416kts
25-Dec-17 06:10 51.002569 -19.873059 266 33619ft 415kts
25-Dec-17 06:11 51.002137 -20.049483 271 33618ft 417kts
25-Dec-17 06:12 51.009435 -20.227302 271 33618ft 417kts
25-Dec-17 06:13 51.016571 -20.405604 271 33617ft 417kts
25-Dec-17 06:14 51.023442 -20.584006 271 33616ft 417kts
25-Dec-17 06:15 51.030049 -20.762570 270 33618ft 417kts
25-Dec-17 06:16 51.036354 -20.940435 271 33618ft 417kts
25-Dec-17 06:17 51.042398 -21.118532 271 33617ft 417kts
25-Dec-17 06:18 51.048212 -21.297985 271 33617ft 417kts
25-Dec-17 06:19 51.053724 -21.476618 271 33616ft 417kts
25-Dec-17 06:20 51.058993 -21.656295 270 33617ft 417kts
25-Dec-17 06:21 51.063970 -21.835292 270 33617ft 417kts
25-Dec-17 06:22 51.068686 -22.014954 270 33617ft 417kts
25-Dec-17 06:23 51.073107 -22.193799 270 33617ft 417kts
25-Dec-17 06:24 51.077254 -22.372792 270 33616ft 417kts
25-Dec-17 06:25 51.081129 -22.551584 270 33616ft 418kts
25-Dec-17 06:26 51.084732 -22.730471 270 33618ft 418kts
25-Dec-17 06:27 51.088075 -22.910213 270 33617ft 417kts
25-Dec-17 06:28 51.091149 -23.090340 270 33617ft 418kts
25-Dec-17 06:29 51.093935 -23.269852 270 33617ft 418kts
25-Dec-17 06:30 51.096437 -23.448667 270 33617ft 418kts
25-Dec-17 06:31 51.098689 -23.629432 270 33616ft 418kts
25-Dec-17 06:32 51.100721 -23.807379 269 33618ft 418kts
25-Dec-17 06:33 51.102481 -23.986922 269 33617ft 418kts
25-Dec-17 06:34 51.103893 -24.165698 269 33616ft 418kts
25-Dec-17 06:35 51.105036 -24.345565 269 33616ft 418kts
25-Dec-17 06:36 51.105901 -24.525646 269 33616ft 418kts
25-Dec-17 06:37 51.106490 -24.705644 269 33617ft 419kts
25-Dec-17 06:38 51.106805 -24.885505 269 33617ft 418kts
25-Dec-17 06:39 51.106840 -25.065967 269 33617ft 418kts
25-Dec-17 06:40 51.106605 -25.245370 269 33617ft 419kts
25-Dec-17 06:41 51.106086 -25.426426 269 33616ft 419kts
25-Dec-17 06:42 51.105293 -25.606444 269 33616ft 419kts
25-Dec-17 06:43 51.104222 -25.786627 268 33617ft 419kts
25-Dec-17 06:44 51.102874 -25.966903 268 33616ft 419kts
25-Dec-17 06:45 51.101245 -26.147578 268 33616ft 419kts
25-Dec-17 06:46 51.099342 -26.327890 268 33616ft 419kts
25-Dec-17 06:47 51.097165 -26.507845 268 33616ft 419kts
25-Dec-17 06:48 51.094711 -26.687731 268 33619ft 419kts
25-Dec-17 06:49 51.091972 -26.868428 268 33618ft 419kts
25-Dec-17 06:50 51.088951 -27.049189 268 33616ft 420kts
25-Dec-17 06:51 51.085664 -27.229231 268 33616ft 420kts
25-Dec-17 06:52 51.082080 -27.410286 268 33617ft 420kts
25-Dec-17 06:53 51.078218 -27.591255 268 33616ft 420kts
25-Dec-17 06:54 51.074093 -27.771460 267 33617ft 420kts
25-Dec-17 06:55 51.069686 -27.951802 267 33617ft 420kts
25-Dec-17 06:56 51.064968 -28.133466 267 33617ft 420kts
25-Dec-17 06:57 51.060008 -28.313622 267 33617ft 420kts
25-Dec-17 06:58 51.054739 -28.494828 267 33616ft 420kts
25-Dec-17 06:59 51.049268 -28.673025 268 33620ft 419kts
25-Dec-17 07:00 51.043449 -28.854375 269 33619ft 420kts
25-Dec-17 07:01 51.037344 -29.036029 269 33586ft 425kts
25-Dec-17 07:02 51.031004 -29.215537 269 33597ft 422kts
25-Dec-17 07:03 51.024335 -29.396329 270 33842ft 423kts
25-Dec-17 07:04 51.017159 -29.583622 271 34100ft 447kts
25-Dec-17 07:05 51.009300 -29.779852 270 34341ft 469kts
25-Dec-17 07:06 51.000966 -29.979088 269 34455ft 467kts
25-Dec-17 07:07 50.989960 -30.179306 268 34457ft 468kts
25-Dec-17 07:08 50.978328 -30.379898 268 34456ft 468kts
25-Dec-17 07:09 50.966360 -30.580466 268 34457ft 474kts
25-Dec-17 07:10 50.953471 -30.790320 263 34457ft 502kts
25-Dec-17 07:11 50.939712 -31.006512 263 34455ft 501kts
25-Dec-17 07:12 50.925654 -31.221743 263 34455ft 502kts
25-Dec-17 07:13 50.911297 -31.435494 263 34455ft 502kts
25-Dec-17 07:14 50.896613 -31.647444 263 34454ft 509kts
25-Dec-17 07:15 50.881390 -31.861166 262 34392ft 504kts
25-Dec-17 07:16 50.865806 -32.075226 263 34157ft 503kts
25-Dec-17 07:17 50.849877 -32.288670 263 33919ft 503kts
25-Dec-17 07:18 50.833447 -32.503393 263 33698ft 504kts
25-Dec-17 07:19 50.816583 -32.718559 262 33697ft 505kts
25-Dec-17 07:20 50.799333 -32.933378 262 33698ft 505kts
25-Dec-17 07:21 50.781733 -33.147486 262 33699ft 505kts
25-Dec-17 07:22 50.763742 -33.361375 262 33699ft 504kts
25-Dec-17 07:23 50.745370 -33.575003 262 33699ft 504kts
25-Dec-17 07:24 50.726642 -33.788231 261 33698ft 504kts
25-Dec-17 07:25 50.707504 -34.001387 261 33698ft 504kts
25-Dec-17 07:26 50.688170 -34.212288 261 33699ft 504kts
25-Dec-17 07:27 50.668226 -34.425877 259 33700ft 510kts
25-Dec-17 07:28 50.647561 -34.642343 254 33698ft 500kts
25-Dec-17 07:29 50.632320 -34.806810 254 34359ft 436kts
25-Dec-17 07:30 50.614846 -35.012744 255 34934ft 419kts
25-Dec-17 07:31 50.602725 -35.158969 256 35766ft 412kts
25-Dec-17 07:32 50.589536 -35.331478 258 37101ft 401kts
25-Dec-17 07:33 50.578967 -35.496299 261 38714ft 378kts
25-Dec-17 07:34 50.569799 -35.679555 262 39524ft 372kts
25-Dec-17 07:35 50.562936 -35.812102 262 39776ft 376kts
25-Dec-17 07:36 50.554292 -35.971805 262 40049ft 380kts
25-Dec-17 07:37 50.545111 -36.133553 262 40295ft 384kts
25-Dec-17 07:38 50.535373 -36.297189 262 40512ft 388kts
25-Dec-17 07:39 50.525099 -36.461917 261 40685ft 392kts
25-Dec-17 07:40 50.514081 -36.629390 262 40875ft 393kts
25-Dec-17 07:41 50.502847 -36.795697 261 41060ft 396kts
25-Dec-17 07:42 50.491445 -36.963556 263 41519ft 390kts
25-Dec-17 07:43 50.480198 -37.129251 266 41567ft 394kts
25-Dec-17 07:44 50.468827 -37.296624 266 41674ft 396kts
25-Dec-17 07:45 50.457477 -37.463712 266 41765ft 397kts
25-Dec-17 07:46 50.446069 -37.631983 266 41843ft 398kts
25-Dec-17 07:47 50.434765 -37.800607 266 41939ft 400kts
25-Dec-17 07:48 50.423755 -37.968891 266 41910ft 399kts
25-Dec-17 07:49 50.413036 -38.136890 266 41871ft 398kts
25-Dec-17 07:50 50.402696 -38.303652 266 41918ft 394kts
25-Dec-17 07:51 50.392788 -38.469699 267 41690ft 393kts
25-Dec-17 07:52 50.383237 -38.635967 267 41777ft 394kts
25-Dec-17 07:53 50.374196 -38.801574 267 41884ft 396kts
25-Dec-17 07:54 50.365665 -38.968629 267 41980ft 398kts
25-Dec-17 07:55 50.357666 -39.137048 267 41978ft 397kts
25-Dec-17 07:56 50.350266 -39.305660 268 41927ft 396kts
25-Dec-17 07:57 50.343562 -39.472922 268 41993ft 396kts
25-Dec-17 07:58 50.337500 -39.640695 268 42001ft 396kts
25-Dec-17 07:59 50.332203 -39.806919 268 41982ft 395kts
25-Dec-17 08:00 50.327641 -39.974582 269 41997ft 395kts
25-Dec-17 08:01 50.323894 -40.141286 269 42018ft 395kts
25-Dec-17 08:02 50.320939 -40.308529 269 42007ft 395kts
25-Dec-17 08:03 50.318819 -40.474617 270 42017ft 394kts
25-Dec-17 08:04 50.317560 -40.639340 270 42004ft 391kts
25-Dec-17 08:05 50.317169 -40.804236 270 41850ft 390kts
25-Dec-17 08:06 50.317625 -40.969553 271 41957ft 392kts
25-Dec-17 08:07 50.318939 -41.136073 271 42049ft 393kts
25-Dec-17 08:08 50.321103 -41.302386 272 42096ft 394kts
25-Dec-17 08:09 50.324142 -41.469627 272 42045ft 393kts
25-Dec-17 08:10 50.328019 -41.635028 272 42064ft 393kts
25-Dec-17 08:11 50.332767 -41.801941 272 42131ft 394kts
25-Dec-17 08:12 50.338244 -41.968568 273 42068ft 392kts
25-Dec-17 08:13 50.344428 -42.134325 273 42076ft 392kts
25-Dec-17 08:14 50.351352 -42.300227 273 42142ft 393kts
25-Dec-17 08:15 50.359016 -42.466198 274 42108ft 392kts
25-Dec-17 08:16 50.367389 -42.631414 274 42098ft 391kts
25-Dec-17 08:17 50.376454 -42.797309 274 42177ft 393kts
25-Dec-17 08:18 50.385967 -42.961944 272 42362ft 383kts
25-Dec-17 08:19 50.395900 -43.124705 275 41896ft 387kts
25-Dec-17 08:20 50.406435 -43.289685 272 41837ft 392kts
25-Dec-17 08:21 50.417353 -43.454448 273 41924ft 394kts
25-Dec-17 08:22 50.428779 -43.621072 273 41999ft 395kts
25-Dec-17 08:23 50.440528 -43.788003 273 42101ft 396kts
25-Dec-17 08:24 50.452410 -43.954882 273 42189ft 398kts
25-Dec-17 08:25 50.464434 -44.122199 273 42191ft 398kts
25-Dec-17 08:26 50.476544 -44.289214 273 42142ft 397kts
25-Dec-17 08:27 50.488746 -44.456522 273 42196ft 397kts
25-Dec-17 08:28 50.501017 -44.624405 273 42217ft 398kts
25-Dec-17 08:29 50.513159 -44.791275 273 42197ft 397kts
25-Dec-17 08:30 50.525035 -44.955730 273 41958ft 392kts
25-Dec-17 08:31 50.536767 -45.121683 273 42047ft 393kts
25-Dec-17 08:32 50.548205 -45.287792 273 42131ft 394kts
25-Dec-17 08:33 50.559337 -45.454266 273 42201ft 396kts
25-Dec-17 08:34 50.570184 -45.621882 273 42260ft 396kts
25-Dec-17 08:35 50.580555 -45.788858 272 42275ft 396kts
25-Dec-17 08:36 50.590400 -45.956179 272 42222ft 395kts
25-Dec-17 08:37 50.599657 -46.123482 271 42267ft 395kts
25-Dec-17 08:38 50.608309 -46.291292 271 42302ft 396kts
25-Dec-17 08:39 50.616316 -46.459134 271 42251ft 394kts
25-Dec-17 08:40 50.623614 -46.626206 271 42277ft 395kts
25-Dec-17 08:41 50.630206 -46.791718 270 42121ft 391kts
25-Dec-17 08:42 50.636033 -46.958514 270 42213ft 392kts
25-Dec-17 08:43 50.641020 -47.125397 269 42297ft 393kts
25-Dec-17 08:44 50.645171 -47.293366 269 42351ft 394kts
25-Dec-17 08:45 50.648426 -47.460291 269 42310ft 393kts
25-Dec-17 08:46 50.650789 -47.627252 269 42313ft 392kts
25-Dec-17 08:47 50.652242 -47.794386 268 42384ft 393kts
25-Dec-17 08:48 50.652815 -47.960950 267 42331ft 392kts
25-Dec-17 08:49 50.652506 -48.126934 267 42324ft 391kts
25-Dec-17 08:50 50.651271 -48.293310 267 42391ft 392kts
25-Dec-17 08:51 50.649081 -48.460276 266 42349ft 392kts
25-Dec-17 08:52 50.646021 -48.624830 266 42014ft 387kts
25-Dec-17 08:53 50.642161 -48.785859 265 42088ft 386kts
25-Dec-17 08:54 50.637449 -48.949341 265 42183ft 387kts
25-Dec-17 08:55 50.631846 -49.115081 265 42265ft 389kts
25-Dec-17 08:56 50.625395 -49.280974 264 42320ft 390kts
25-Dec-17 08:57 50.618068 -49.447301 264 42299ft 389kts
25-Dec-17 08:58 50.609926 -49.612425 264 42287ft 388kts
25-Dec-17 08:59 50.601033 -49.776670 263 42357ft 389kts
25-Dec-17 09:00 50.591491 -49.942484 263 42319ft 388kts
25-Dec-17 09:01 50.581528 -50.106099 262 42295ft 387kts
25-Dec-17 09:02 50.570970 -50.270027 262 42360ft 388kts
25-Dec-17 09:03 50.559757 -50.434846 262 42358ft 387kts
25-Dec-17 09:04 50.548012 -50.598611 262 42326ft 386kts
25-Dec-17 09:05 50.535832 -50.761389 261 42589ft 381kts
25-Dec-17 09:06 50.523469 -50.924082 261 42289ft 385kts
25-Dec-17 09:07 50.510976 -51.085986 261 42367ft 386kts
25-Dec-17 09:08 50.478594 -51.238119 238 41943ft 390kts
25-Dec-17 09:09 50.419183 -51.370716 239 40975ft 376kts
25-Dec-17 09:10 50.361214 -51.500209 239 40001ft 369kts
25-Dec-17 09:11 50.304676 -51.626354 240 38998ft 360kts
25-Dec-17 09:12 50.249419 -51.749836 239 38064ft 358kts
25-Dec-17 09:13 50.194064 -51.873536 239 37136ft 354kts
25-Dec-17 09:14 50.139287 -51.995828 239 36190ft 351kts
25-Dec-17 09:15 50.085058 -52.116785 239 35224ft 350kts
25-Dec-17 09:16 50.030792 -52.237698 239 34230ft 349kts
25-Dec-17 09:17 49.976809 -52.357869 238 33997ft 351kts
25-Dec-17 09:18 49.922572 -52.478440 239 33995ft 348kts
25-Dec-17 09:19 49.869472 -52.595846 239 33992ft 344kts
25-Dec-17 09:20 49.816452 -52.712628 238 33999ft 347kts
25-Dec-17 09:21 49.762256 -52.832108 238 33997ft 348kts
25-Dec-17 09:22 49.707765 -52.952101 238 33996ft 347kts
25-Dec-17 09:23 49.654228 -53.069867 238 33995ft 347kts
25-Dec-17 09:24 49.600936 -53.186974 238 33995ft 346kts
25-Dec-17 09:25 49.547835 -53.303541 238 33994ft 346kts
25-Dec-17 09:26 49.494383 -53.420759 239 33994ft 345kts
25-Dec-17 09:27 49.440940 -53.537839 239 33992ft 345kts
25-Dec-17 09:28 49.388274 -53.653097 238 34024ft 344kts
25-Dec-17 09:29 49.335169 -53.769559 238 34048ft 344kts
25-Dec-17 09:30 49.282713 -53.884528 238 34049ft 344kts
25-Dec-17 09:31 49.229974 -53.999996 238 34048ft 344kts
25-Dec-17 09:32 49.177584 -54.114517 239 34035ft 336kts
25-Dec-17 09:33 49.125565 -54.228278 239 34046ft 345kts
25-Dec-17 09:34 49.073701 -54.341494 239 34047ft 343kts
25-Dec-17 09:35 49.021715 -54.454873 239 34046ft 342kts
25-Dec-17 09:36 48.968845 -54.570078 239 34045ft 342kts
25-Dec-17 09:37 48.916568 -54.683945 238 34049ft 343kts
25-Dec-17 09:38 48.865727 -54.794331 238 34051ft 342kts
25-Dec-17 09:39 48.814608 -54.904794 238 34051ft 342kts
25-Dec-17 09:40 48.762952 -55.016305 238 34050ft 342kts
25-Dec-17 09:41 48.710476 -55.129476 238 34049ft 342kts
25-Dec-17 09:42 48.658060 -55.242408 239 34049ft 342kts
25-Dec-17 09:43 48.605916 -55.354644 239 34048ft 342kts
25-Dec-17 09:44 48.554039 -55.466197 239 34048ft 342kts
25-Dec-17 09:45 48.501943 -55.578118 239 34047ft 342kts
25-Dec-17 09:46 48.449879 -55.689942 238 34048ft 344kts
25-Dec-17 09:47 48.397532 -55.802583 238 34050ft 343kts
25-Dec-17 09:48 48.345011 -55.915487 238 34049ft 343kts
25-Dec-17 09:49 48.292566 -56.028121 238 34016ft 344kts
25-Dec-17 09:50 48.240068 -56.140763 238 33995ft 344kts
25-Dec-17 09:51 48.187573 -56.253288 239 33993ft 344kts
25-Dec-17 09:52 48.134598 -56.366737 239 33993ft 345kts
25-Dec-17 09:53 48.081428 -56.480496 239 33992ft 345kts
25-Dec-17 09:54 48.028856 -56.592872 239 33992ft 345kts
25-Dec-17 09:55 47.976760 -56.704268 238 33996ft 346kts
25-Dec-17 09:56 47.923760 -56.817724 238 33994ft 346kts
25-Dec-17 09:57 47.871292 -56.929501 238 33998ft 346kts
25-Dec-17 09:58 47.817918 -57.042554 238 33974ft 347kts
25-Dec-17 09:59 47.773706 -57.136108 238 33969ft 347kts
25-Dec-17 10:00 47.711621 -57.267362 238 33967ft 347kts
25-Dec-17 10:01 47.658460 -57.379632 238 33967ft 347kts
25-Dec-17 10:02 47.605377 -57.491630 238 33967ft 348kts
25-Dec-17 10:03 47.560758 -57.585691 239 33966ft 348kts
25-Dec-17 10:04 47.499131 -57.715675 238 33971ft 349kts
25-Dec-17 10:05 47.445602 -57.828695 238 33969ft 349kts
25-Dec-17 10:06 47.401084 -57.922610 238 33968ft 349kts
25-Dec-17 10:07 47.347542 -58.035462 238 33967ft 349kts
25-Dec-17 10:08 47.293600 -58.149050 238 33967ft 350kts
25-Dec-17 10:09 47.239750 -58.262338 238 33967ft 350kts
25-Dec-17 10:10 47.185848 -58.375630 238 33966ft 350kts
25-Dec-17 10:11 47.131805 -58.489113 238 33989ft 351kts
25-Dec-17 10:12 47.077833 -58.602339 239 33992ft 351kts
25-Dec-17 10:13 47.024527 -58.714237 238 33997ft 352kts
25-Dec-17 10:14 46.971040 -58.826619 238 33994ft 352kts
25-Dec-17 10:15 46.916613 -58.940871 238 33994ft 352kts
25-Dec-17 10:16 46.862289 -59.054218 238 33995ft 353kts
25-Dec-17 10:17 46.807424 -59.168186 238 33995ft 353kts
25-Dec-17 10:18 46.752655 -59.281844 238 33995ft 353kts
25-Dec-17 10:19 46.700673 -59.389790 235 33995ft 327kts
25-Dec-17 10:20 46.649080 -59.496660 235 33994ft 329kts
25-Dec-17 10:21 46.598416 -59.601478 235 33993ft 330kts
25-Dec-17 10:22 46.547466 -59.707226 231 33829ft 328kts
25-Dec-17 10:23 46.496369 -59.812976 235 33682ft 331kts
25-Dec-17 10:24 46.445465 -59.918459 234 33858ft 331kts
25-Dec-17 10:25 46.393998 -60.024991 235 33981ft 331kts
25-Dec-17 10:26 46.343119 -60.130208 235 33817ft 330kts
25-Dec-17 10:27 46.292124 -60.235592 234 33659ft 331kts
25-Dec-17 10:28 46.241117 -60.340878 234 33642ft 331kts
25-Dec-17 10:29 46.189939 -60.446421 234 33663ft 331kts
25-Dec-17 10:30 46.138890 -60.551605 234 33643ft 331kts
25-Dec-17 10:31 46.088540 -60.655266 234 33641ft 331kts
25-Dec-17 10:32 46.037990 -60.759630 234 33642ft 331kts
25-Dec-17 10:33 45.987491 -60.863826 234 33654ft 332kts
25-Dec-17 10:34 45.936680 -60.968595 234 33539ft 330kts
25-Dec-17 10:35 45.885896 -61.073036 233 33538ft 331kts
25-Dec-17 10:36 45.834526 -61.177804 233 33537ft 331kts
25-Dec-17 10:37 45.783445 -61.281899 234 33536ft 331kts
25-Dec-17 10:38 45.732392 -61.385993 231 33536ft 330kts
25-Dec-17 10:39 45.681462 -61.489446 233 33535ft 331kts
25-Dec-17 10:40 45.630008 -61.594009 233 33534ft 331kts
25-Dec-17 10:41 45.578992 -61.697771 233 33685ft 331kts
25-Dec-17 10:42 45.527859 -61.801954 233 33839ft 330kts
25-Dec-17 10:43 45.477180 -61.905115 233 33989ft 329kts
25-Dec-17 10:44 45.426235 -62.008727 233 33994ft 329kts
25-Dec-17 10:45 45.375292 -62.112248 233 33994ft 329kts
25-Dec-17 10:46 45.324824 -62.214695 233 33994ft 329kts
25-Dec-17 10:47 45.274615 -62.316524 233 33992ft 329kts
25-Dec-17 10:48 45.224218 -62.418659 233 33992ft 329kts
25-Dec-17 10:49 45.174034 -62.520253 233 33991ft 329kts
25-Dec-17 10:50 45.124144 -62.621163 233 33991ft 329kts
25-Dec-17 10:51 45.074601 -62.721545 232 33993ft 329kts
25-Dec-17 10:52 45.024492 -62.823184 232 33994ft 329kts
25-Dec-17 10:53 44.974336 -62.924821 232 33992ft 331kts
25-Dec-17 10:54 44.924203 -63.026304 232 33993ft 331kts
25-Dec-17 10:55 44.873825 -63.127830 232 33999ft 330kts
25-Dec-17 10:56 44.822921 -63.229810 232 33948ft 331kts
25-Dec-17 10:57 44.773268 -63.329694 235 33777ft 332kts
25-Dec-17 10:58 44.735762 -63.444838 240 33608ft 337kts
25-Dec-17 10:59 44.700035 -63.560109 240 33532ft 337kts
25-Dec-17 11:00 44.664258 -63.675670 240 33644ft 337kts
25-Dec-17 11:01 44.628297 -63.791495 240 33789ft 336kts
25-Dec-17 11:02 44.592092 -63.907430 240 33722ft 334kts
25-Dec-17 11:03 44.555723 -64.023329 240 33871ft 336kts
25-Dec-17 11:04 44.519291 -64.138914 240 33991ft 337kts
25-Dec-17 11:05 44.482612 -64.254781 240 33994ft 336kts
25-Dec-17 11:06 44.445941 -64.370109 240 33993ft 336kts
25-Dec-17 11:07 44.409221 -64.485080 240 33992ft 337kts
25-Dec-17 11:08 44.372334 -64.600048 240 33992ft 336kts
25-Dec-17 11:09 44.335858 -64.713449 240 33997ft 336kts
25-Dec-17 11:10 44.298734 -64.828235 239 33995ft 336kts
25-Dec-17 11:11 44.261661 -64.942315 239 33994ft 336kts
25-Dec-17 11:12 44.224380 -65.056516 240 33994ft 336kts
25-Dec-17 11:13 44.186804 -65.171155 240 33993ft 336kts
25-Dec-17 11:14 44.149242 -65.285247 240 33992ft 336kts
25-Dec-17 11:15 44.111431 -65.399600 240 33991ft 336kts
25-Dec-17 11:16 44.073652 -65.513372 240 33991ft 337kts
25-Dec-17 11:17 44.035900 -65.626575 240 33990ft 337kts
25-Dec-17 11:18 43.998535 -65.738333 240 33993ft 336kts
25-Dec-17 11:19 43.960244 -65.852229 240 33806ft 337kts
25-Dec-17 11:20 43.921501 -65.966940 240 33613ft 338kts
25-Dec-17 11:21 43.882827 -66.080637 240 33421ft 338kts
25-Dec-17 11:22 43.843786 -66.195054 240 33206ft 339kts
25-Dec-17 11:23 43.804643 -66.309471 240 33186ft 339kts
25-Dec-17 11:24 43.765802 -66.422540 240 33184ft 339kts
25-Dec-17 11:25 43.726799 -66.535623 240 33184ft 339kts
25-Dec-17 11:26 43.687334 -66.649563 240 33182ft 339kts
25-Dec-17 11:27 43.647885 -66.763186 240 33186ft 339kts
25-Dec-17 11:28 43.608115 -66.877060 240 33186ft 339kts
25-Dec-17 11:29 43.568443 -66.990150 240 33186ft 339kts
25-Dec-17 11:30 43.523436 -67.099145 237 33185ft 338kts
25-Dec-17 11:31 43.478736 -67.205424 237 33183ft 333kts
25-Dec-17 11:32 43.433947 -67.311512 237 33183ft 332kts
25-Dec-17 11:33 43.389202 -67.417124 237 33183ft 333kts
25-Dec-17 11:34 43.344220 -67.522783 240 33185ft 341kts
25-Dec-17 11:35 43.297667 -67.631966 240 33182ft 340kts
25-Dec-17 11:36 43.251641 -67.739557 239 33185ft 341kts
25-Dec-17 11:37 43.205326 -67.847291 239 33265ft 341kts
25-Dec-17 11:38 43.159385 -67.953737 239 33452ft 340kts
25-Dec-17 11:39 43.112820 -68.061229 239 33589ft 341kts
25-Dec-17 11:40 43.066249 -68.168343 239 33587ft 341kts
25-Dec-17 11:41 43.020995 -68.272053 239 33587ft 340kts
25-Dec-17 11:42 42.973956 -68.379466 239 33586ft 341kts
25-Dec-17 11:43 42.926831 -68.486688 239 33585ft 339kts
25-Dec-17 11:44 42.879779 -68.593077 239 33588ft 341kts
25-Dec-17 11:45 42.834378 -68.695571 239 33591ft 341kts
25-Dec-17 11:46 42.786932 -68.802424 239 33590ft 341kts
25-Dec-17 11:47 42.740161 -68.907325 239 33751ft 342kts
25-Dec-17 11:48 42.692291 -69.014297 239 33781ft 342kts
25-Dec-17 11:49 42.644359 -69.121022 239 33779ft 342kts
25-Dec-17 11:50 42.596185 -69.227899 239 33778ft 342kts
25-Dec-17 11:51 42.547894 -69.334653 239 33778ft 342kts
25-Dec-17 11:52 42.499437 -69.441389 239 33777ft 342kts
25-Dec-17 11:53 42.451674 -69.546215 239 33776ft 342kts
25-Dec-17 11:54 42.403156 -69.652333 238 33777ft 343kts
25-Dec-17 11:55 42.355120 -69.757189 238 33780ft 342kts
25-Dec-17 11:56 42.306862 -69.862008 238 33779ft 343kts
25-Dec-17 11:57 42.258970 -69.965641 239 33780ft 346kts
25-Dec-17 11:58 42.210112 -70.071023 238 33779ft 342kts
25-Dec-17 11:59 42.161583 -70.175313 238 33777ft 343kts
25-Dec-17 12:00 42.112845 -70.279692 238 33777ft 343kts
25-Dec-17 12:01 42.063658 -70.384664 238 33775ft 344kts
25-Dec-17 12:02 42.024330 -70.489972 245 33777ft 344kts
25-Dec-17 12:03 41.990075 -70.596271 245 33774ft 344kts
25-Dec-17 12:04 41.954660 -70.708693 245 33752ft 345kts
25-Dec-17 12:05 41.918778 -70.822377 245 33751ft 345kts
25-Dec-17 12:06 41.883674 -70.932743 245 33754ft 345kts
25-Dec-17 12:07 41.847224 -71.047025 245 33774ft 345kts
25-Dec-17 12:08 41.810811 -71.160902 245 33789ft 345kts
25-Dec-17 12:09 41.774336 -71.274506 245 33856ft 345kts
25-Dec-17 12:10 41.737651 -71.388288 245 33859ft 344kts
25-Dec-17 12:11 41.678092 -71.479736 226 33856ft 349kts
25-Dec-17 12:12 41.608622 -71.558278 225 33859ft 349kts
25-Dec-17 12:13 41.538258 -71.636465 225 33872ft 349kts
25-Dec-17 12:14 41.470211 -71.711886 225 33441ft 348kts
25-Dec-17 12:15 41.400223 -71.789533 225 32610ft 347kts
25-Dec-17 12:16 41.330462 -71.866948 225 31882ft 345kts
25-Dec-17 12:17 41.260737 -71.943956 225 31225ft 347kts
25-Dec-17 12:18 41.190473 -72.021050 225 30215ft 344kts
25-Dec-17 12:19 41.119906 -72.098254 225 29188ft 346kts
25-Dec-17 12:20 41.080894 -72.178083 255 27941ft 341kts
25-Dec-17 12:21 41.056849 -72.290721 248 26248ft 334kts
25-Dec-17 12:22 41.025192 -72.419376 248 24269ft 318kts
25-Dec-17 12:23 41.003089 -72.507835 248 22907ft 311kts
25-Dec-17 12:24 40.973436 -72.625869 248 21141ft 305kts
25-Dec-17 12:25 40.953556 -72.704827 248 20029ft 301kts
25-Dec-17 12:26 40.924152 -72.799258 228 18586ft 300kts
25-Dec-17 12:27 40.862644 -72.862429 223 17133ft 303kts
25-Dec-17 12:28 40.798764 -72.924281 223 15618ft 309kts
25-Dec-17 12:29 40.732868 -72.987358 223 14044ft 311kts
25-Dec-17 12:30 40.687208 -73.065162 258 12483ft 288kts
25-Dec-17 12:31 40.677038 -73.160353 262 11394ft 262kts
25-Dec-17 12:32 40.670504 -73.245250 265 10940ft 225kts
25-Dec-17 12:33 40.665020 -73.321110 266 10565ft 227kts
25-Dec-17 12:34 40.659527 -73.397546 266 10195ft 228kts
25-Dec-17 12:35 40.653952 -73.475121 266 9729ft 231kts
25-Dec-17 12:36 40.648352 -73.554807 266 8730ft 235kts
25-Dec-17 12:37 40.642880 -73.631872 267 7773ft 235kts
25-Dec-17 12:38 40.637598 -73.705859 265 6905ft 247kts
25-Dec-17 12:39 40.631709 -73.776093 254 5923ft 251kts
25-Dec-17 12:40 40.573459 -73.783842 126 4456ft 296kts
25-Dec-17 12:41 40.566942 -73.686259 94 3680ft 282kts
25-Dec-17 12:42 40.544246 -73.593550 106 3049ft 276kts
25-Dec-17 12:43 40.522635 -73.509071 123 2987ft 227kts
25-Dec-17 12:44 40.493131 -73.515755 293 2646ft 143kts
25-Dec-17 12:45 40.520609 -73.547226 305 2163ft 116kts
25-Dec-17 12:46 40.538572 -73.578513 299 1149ft 114kts
25-Dec-17 12:47 40.554504 -73.611177 297 728ft 116kts
25-Dec-17 12:48 40.569129 -73.642695 297 1405ft 111kts
25-Dec-17 12:49 40.584102 -73.675441 297 1420ft 114kts
25-Dec-17 12:50 40.599333 -73.708867 296 1303ft 115kts
25-Dec-17 12:51 40.613872 -73.741376 296 876ft 130kts
25-Dec-17 12:52 40.630202 -73.776634 296 98ft 116kts
25-Dec-17 12:53 40.637918 -73.793903 303 16ft 11kts
25-Dec-17 12:54 40.642119 -73.794476 53 19ft 13kts
25-Dec-17 12:55 40.643537 -73.792115 56 19ft 0kts
25-Dec-17 12:56 40.643537 -73.792115 56 19ft 0kts
25-Dec-17 12:57 40.643537 -73.792115 56 19ft 0kts
25-Dec-17 12:58 40.643537 -73.792115 56 19ft 0kts
25-Dec-17 12:59 40.643537 -73.792115 56 19ft 0kts
25-Dec-17 13:00 40.643537 -73.792115 56 19ft 0kts
25-Dec-17 13:01 40.643537 -73.792115 56 19ft 0kts
25-Dec-17 13:02 40.643537 -73.792115 56 19ft 0kts
25-Dec-17 13:03 40.643537 -73.792115 56 19ft 0kts
25-Dec-17 13:04 40.643537 -73.792115 56 19ft 0kts

Navigation Log

Ident Type
Flight plan parsing failed, navigation log unavailable